Time;durP1;ratioP1;P1;durP2;ratioP2;P2;SDS_P1;SDS_P2;PMS_P1;PMS_P2;Temp;Humidity;BMP_temperature;BMP_pressure;BME280_temperature;BME280_humidity;BME280_pressure;Samples;Min_cycle;Max_cycle;Signal;HPM_P1;HPM_P2
2023/09/10 00:01:38;;;;;;;7.15;3.85;;;;;;;28.35;27.60;96558.75;5079488;28;20082;-28
2023/09/10 00:04:04;;;;;;;5.38;3.03;;;;;;;28.32;27.74;96571.75;5083005;28;20024;-28
2023/09/10 00:06:32;;;;;;;5.03;3.40;;;;;;;28.32;27.69;96568.19;5083383;28;20370;-28
2023/09/10 00:08:58;;;;;;;5.95;3.17;;;;;;;28.34;27.42;96557.25;5083322;28;20036;-27
2023/09/10 00:11:23;;;;;;;5.95;3.10;;;;;;;28.27;27.35;96561.47;5083229;28;20036;-27
2023/09/10 00:13:48;;;;;;;5.30;3.05;;;;;;;28.29;26.81;96564.47;5075541;28;20020;-28
2023/09/10 00:16:14;;;;;;;6.07;3.20;;;;;;;28.37;26.85;96559.72;5083211;28;20355;-28
2023/09/10 00:18:40;;;;;;;7.03;2.97;;;;;;;28.35;26.41;96559.50;5089725;28;20405;-29
2023/09/10 00:21:05;;;;;;;4.63;3.10;;;;;;;28.23;26.99;96569.41;5082581;28;20024;-28
2023/09/10 00:23:30;;;;;;;4.85;3.03;;;;;;;28.43;26.29;96567.97;5082809;28;20043;-28
2023/09/10 00:25:56;;;;;;;5.60;3.20;;;;;;;28.40;26.37;96567.00;5082803;28;20470;-27
2023/09/10 00:28:21;;;;;;;4.93;3.25;;;;;;;28.25;26.54;96561.28;5082823;28;20504;-28
2023/09/10 00:30:53;;;;;;;6.50;3.15;;;;;;;28.35;26.20;96564.34;5085671;28;20474;-28
2023/09/10 00:33:19;;;;;;;4.07;3.05;;;;;;;28.28;25.91;96562.22;5085612;28;20472;-28
2023/09/10 00:35:44;;;;;;;5.97;2.85;;;;;;;28.12;25.92;96564.81;5082231;28;20028;-27
2023/09/10 00:38:10;;;;;;;3.88;2.95;;;;;;;28.38;26.20;96563.25;5080561;28;20020;-28
2023/09/10 00:40:35;;;;;;;6.22;2.97;;;;;;;28.17;26.28;96561.16;5077416;28;20021;-28
2023/09/10 00:43:01;;;;;;;5.50;2.53;;;;;;;28.21;25.95;96563.63;5082375;28;20296;-28
2023/09/10 00:45:27;;;;;;;5.25;3.00;;;;;;;28.19;26.11;96564.16;5081424;28;20401;-27
2023/09/10 00:47:53;;;;;;;5.25;3.08;;;;;;;28.30;26.13;96573.59;5083069;28;20027;-28
2023/09/10 00:50:18;;;;;;;3.50;2.60;;;;;;;28.30;25.86;96554.81;5074503;28;20107;-27
2023/09/10 00:52:51;;;;;;;4.40;3.30;;;;;;;28.18;26.00;96573.84;5082381;28;20112;-30
2023/09/10 00:55:17;;;;;;;4.15;2.83;;;;;;;28.28;25.71;96568.56;5078556;28;20024;-27
2023/09/10 00:57:43;;;;;;;4.78;3.17;;;;;;;28.19;25.75;96561.38;5085422;28;20082;-28
2023/09/10 01:00:10;;;;;;;4.43;3.00;;;;;;;28.08;26.10;96564.41;5089528;28;20024;-28
2023/09/10 01:02:38;;;;;;;4.45;3.00;;;;;;;28.04;25.87;96564.00;5074588;28;20032;-28
2023/09/10 01:05:03;;;;;;;4.57;3.00;;;;;;;28.13;25.56;96569.09;5082056;28;20020;-28
2023/09/10 01:07:29;;;;;;;4.38;3.17;;;;;;;28.15;25.39;96557.41;5074809;28;20025;-27
2023/09/10 01:09:54;;;;;;;4.93;2.85;;;;;;;28.12;25.63;96562.03;5088913;28;20442;-28
2023/09/10 01:12:32;;;;;;;4.90;3.08;;;;;;;28.28;25.52;96559.44;5081806;28;20362;-28
2023/09/10 01:14:57;;;;;;;5.32;3.20;;;;;;;28.26;25.83;96562.03;5081492;28;20024;-28
2023/09/10 01:17:50;;;;;;;5.88;3.38;;;;;;;28.16;25.53;96561.72;5081103;28;20024;-28
2023/09/10 01:20:24;;;;;;;3.75;2.83;;;;;;;28.08;25.65;96558.06;5082301;28;20027;-27
2023/09/10 01:23:05;;;;;;;5.25;3.08;;;;;;;28.00;26.17;96552.41;5080397;28;20050;-28
2023/09/10 01:25:33;;;;;;;4.57;3.10;;;;;;;28.10;25.47;96553.44;5081588;28;20415;-28
2023/09/10 01:27:58;;;;;;;5.13;3.60;;;;;;;28.05;25.73;96548.78;5081681;28;20504;-28
2023/09/10 01:30:24;;;;;;;4.43;3.25;;;;;;;28.07;25.74;96562.16;5079732;28;20028;-28
2023/09/10 01:32:58;;;;;;;4.43;2.88;;;;;;;28.15;25.63;96557.41;5081973;28;20060;-28
2023/09/10 01:35:54;;;;;;;3.55;3.15;;;;;;;28.03;25.82;96548.56;5081309;28;20029;-29
2023/09/10 01:38:32;;;;;;;4.03;2.90;;;;;;;28.11;25.34;96546.59;5081066;28;20024;-28
2023/09/10 01:41:10;;;;;;;4.88;3.08;;;;;;;28.04;25.40;96549.31;5084241;28;20020;-28
2023/09/10 01:43:36;;;;;;;4.95;3.13;;;;;;;27.99;25.75;96550.16;5076403;28;20063;-29
2023/09/10 01:46:03;;;;;;;3.55;2.88;;;;;;;28.07;25.50;96551.00;5081319;28;20390;-29
2023/09/10 01:48:29;;;;;;;3.25;2.83;;;;;;;27.92;25.46;96559.94;5080746;28;20162;-28
2023/09/10 01:50:55;;;;;;;5.32;2.75;;;;;;;27.98;25.62;96560.56;5081989;28;20116;-30
2023/09/10 01:53:20;;;;;;;4.97;3.13;;;;;;;27.94;26.01;96553.84;5084409;28;20027;-28
2023/09/10 01:55:46;;;;;;;4.82;2.92;;;;;;;27.97;25.36;96556.28;5074870;28;20023;-28
2023/09/10 01:58:14;;;;;;;5.30;3.13;;;;;;;27.90;25.76;96562.53;5084085;28;20103;-28
2023/09/10 02:00:45;;;;;;;4.10;3.30;;;;;;;27.78;25.89;96555.69;5084924;28;20022;-28
2023/09/10 02:03:10;;;;;;;7.07;3.00;;;;;;;27.80;25.70;96551.09;5088278;28;20469;-28
2023/09/10 02:05:36;;;;;;;5.05;3.25;;;;;;;27.96;25.89;96551.25;5073709;28;20105;-28
2023/09/10 02:08:02;;;;;;;5.45;3.00;;;;;;;27.86;25.65;96553.75;5073369;28;20051;-28
2023/09/10 02:10:28;;;;;;;3.92;2.80;;;;;;;27.89;25.65;96558.25;5084045;28;20020;-28
2023/09/10 02:12:53;;;;;;;5.20;3.30;;;;;;;27.99;25.69;96550.16;5077068;28;20462;-28
2023/09/10 02:15:19;;;;;;;4.50;3.47;;;;;;;27.88;26.07;96557.50;5088276;28;20035;-28
2023/09/10 02:17:44;;;;;;;5.63;3.42;;;;;;;27.72;26.19;96555.78;5080251;28;20016;-28
2023/09/10 02:20:10;;;;;;;8.35;3.10;;;;;;;27.87;25.53;96555.25;5081052;28;20020;-28
2023/09/10 02:22:37;;;;;;;5.57;2.97;;;;;;;27.67;26.10;96559.47;5080605;28;20024;-27
2023/09/10 02:25:04;;;;;;;6.90;3.50;;;;;;;27.65;26.18;96558.50;5080248;28;20074;-30
2023/09/10 02:27:31;;;;;;;4.20;3.03;;;;;;;27.71;26.23;96564.69;5079896;28;20019;-27
2023/09/10 02:29:56;;;;;;;5.15;3.10;;;;;;;27.65;25.97;96566.84;5077620;28;20474;-28
2023/09/10 02:32:23;;;;;;;4.65;3.05;;;;;;;27.76;26.02;96563.84;5083263;28;20112;-29
2023/09/10 02:34:51;;;;;;;4.40;3.03;;;;;;;27.72;26.46;96557.84;5083708;28;20077;-28
2023/09/10 02:37:17;;;;;;;4.75;3.28;;;;;;;27.69;26.19;96564.50;5083464;28;20469;-28
2023/09/10 02:39:42;;;;;;;3.55;2.78;;;;;;;27.68;26.48;96569.31;5073664;28;20039;-28
2023/09/10 02:42:08;;;;;;;3.65;2.40;;;;;;;27.76;26.43;96561.06;5085823;28;20032;-28
2023/09/10 02:44:33;;;;;;;3.92;2.60;;;;;;;27.66;26.46;96569.09;5080291;28;20433;-29
2023/09/10 02:46:58;;;;;;;3.55;2.72;;;;;;;27.52;26.84;96554.41;5076150;28;20019;-29
2023/09/10 02:49:24;;;;;;;3.05;2.63;;;;;;;27.56;26.72;96558.94;5078219;28;20071;-28
2023/09/10 02:51:50;;;;;;;5.05;2.63;;;;;;;27.72;26.98;96566.94;5081290;28;20017;-29
2023/09/10 02:54:16;;;;;;;4.30;2.50;;;;;;;27.73;26.37;96551.72;5079258;28;20473;-29
2023/09/10 02:56:41;;;;;;;2.75;2.45;;;;;;;27.66;26.83;96551.63;5072904;28;20021;-28
2023/09/10 02:59:07;;;;;;;5.30;3.20;;;;;;;27.52;26.92;96548.84;5073057;28;20013;-28
2023/09/10 03:01:33;;;;;;;2.92;2.65;;;;;;;27.41;27.18;96549.06;5080361;28;20162;-29
2023/09/10 03:03:58;;;;;;;4.57;2.83;;;;;;;27.51;27.30;96552.91;5080174;28;20051;-28
2023/09/10 03:06:24;;;;;;;4.00;2.80;;;;;;;27.69;26.96;96561.72;5083540;28;20385;-27
2023/09/10 03:08:49;;;;;;;4.28;2.58;;;;;;;27.52;26.91;96562.75;5076732;28;20020;-29
2023/09/10 03:11:14;;;;;;;4.38;2.55;;;;;;;27.47;27.39;96555.25;5080152;28;20036;-28
2023/09/10 03:13:40;;;;;;;3.38;2.60;;;;;;;27.46;27.74;96562.13;5077086;28;20016;-29
2023/09/10 03:16:05;;;;;;;3.15;2.72;;;;;;;27.52;27.74;96559.22;5082591;28;20024;-28
2023/09/10 03:18:31;;;;;;;4.70;2.90;;;;;;;27.59;27.71;96552.28;5080011;28;20021;-29
2023/09/10 03:20:56;;;;;;;4.68;2.53;;;;;;;27.41;28.06;96554.63;5080028;28;20020;-28
2023/09/10 03:23:22;;;;;;;4.57;2.80;;;;;;;27.53;27.72;96561.47;5079622;28;20473;-28
2023/09/10 03:25:47;;;;;;;5.85;3.13;;;;;;;27.40;27.81;96557.94;5076213;28;20023;-29
2023/09/10 03:28:13;;;;;;;5.78;2.90;;;;;;;27.39;27.96;96562.03;5076139;28;20562;-28
2023/09/10 03:30:38;;;;;;;4.60;3.00;;;;;;;27.48;28.24;96553.97;5080254;28;20104;-27
2023/09/10 03:33:04;;;;;;;5.05;2.90;;;;;;;27.40;28.65;96560.75;5080159;28;20025;-29
2023/09/10 03:35:29;;;;;;;5.85;2.83;;;;;;;27.58;28.06;96559.13;5079950;28;20060;-28
2023/09/10 03:37:55;;;;;;;4.88;2.80;;;;;;;27.43;28.53;96557.63;5082054;28;20028;-28
2023/09/10 03:40:20;;;;;;;5.68;2.90;;;;;;;27.32;28.86;96560.66;5083724;28;20129;-29
2023/09/10 03:42:46;;;;;;;6.05;2.83;;;;;;;27.32;28.36;96557.09;5083534;28;20044;-27
2023/09/10 03:45:11;;;;;;;5.10;2.97;;;;;;;27.22;29.04;96559.53;5083908;28;20028;-28
2023/09/10 03:47:37;;;;;;;5.13;2.92;;;;;;;27.28;29.17;96559.44;5083054;28;20026;-27
2023/09/10 03:50:02;;;;;;;5.03;3.10;;;;;;;27.40;29.03;96547.56;5078214;28;20073;-28
2023/09/10 03:52:28;;;;;;;4.20;2.85;;;;;;;27.37;29.20;96556.97;5086055;28;20103;-29
2023/09/10 03:54:54;;;;;;;3.33;2.70;;;;;;;27.39;29.11;96554.41;5078261;28;20025;-29
2023/09/10 03:57:19;;;;;;;3.53;2.88;;;;;;;27.44;28.94;96556.34;5090236;28;20079;-28
2023/09/10 03:59:45;;;;;;;3.65;2.90;;;;;;;27.41;29.44;96553.88;5083072;28;20009;-28
2023/09/10 04:02:11;;;;;;;3.97;2.78;;;;;;;27.47;29.70;96549.69;5084351;28;20013;-28
2023/09/10 04:04:36;;;;;;;6.55;3.25;;;;;;;27.46;29.67;96553.00;5080601;28;20386;-28
2023/09/10 04:07:03;;;;;;;6.30;3.15;;;;;;;27.21;29.95;96549.69;5083624;28;20028;-28
2023/09/10 04:09:29;;;;;;;6.57;3.58;;;;;;;27.35;29.94;96553.22;5086598;28;20027;-28
2023/09/10 04:11:54;;;;;;;4.93;3.40;;;;;;;27.46;29.82;96550.97;5079499;28;20028;-28
2023/09/10 04:14:20;;;;;;;4.28;3.15;;;;;;;27.40;29.88;96555.91;5082994;28;20505;-28
2023/09/10 04:16:46;;;;;;;5.25;2.88;;;;;;;27.26;29.82;96557.19;5082798;28;20128;-28
2023/09/10 04:19:11;;;;;;;5.07;3.22;;;;;;;27.19;30.15;96555.06;5082782;28;20099;-29
2023/09/10 04:21:37;;;;;;;4.78;3.00;;;;;;;27.20;29.78;96550.25;5075286;28;20038;-28
2023/09/10 04:24:05;;;;;;;3.70;3.03;;;;;;;27.43;29.54;96557.63;5074661;28;20173;-29
2023/09/10 04:26:31;;;;;;;5.38;3.38;;;;;;;27.38;29.52;96557.72;5082580;28;20035;-28
2023/09/10 04:28:59;;;;;;;4.30;3.03;;;;;;;27.15;29.31;96560.94;5082438;28;20466;-28
2023/09/10 04:31:24;;;;;;;5.82;2.92;;;;;;;27.35;29.31;96550.44;5090359;28;20026;-28
2023/09/10 04:33:50;;;;;;;3.75;3.00;;;;;;;27.30;29.29;96557.63;5082737;28;20020;-28
2023/09/10 04:36:15;;;;;;;5.00;3.00;;;;;;;27.34;29.00;96563.63;5088872;28;20055;-28
2023/09/10 04:38:41;;;;;;;3.42;2.70;;;;;;;27.37;28.97;96559.78;5083802;28;20421;-28
2023/09/10 04:41:06;;;;;;;3.80;3.33;;;;;;;27.21;29.65;96568.44;5079548;28;20024;-28
2023/09/10 04:43:32;;;;;;;4.55;3.28;;;;;;;27.32;29.42;96568.25;5085242;28;20031;-27
2023/09/10 04:45:57;;;;;;;3.58;2.95;;;;;;;27.22;29.51;96572.72;5084766;28;20021;-28
2023/09/10 04:48:23;;;;;;;3.63;2.70;;;;;;;27.41;28.95;96573.38;5085052;28;20018;-29
2023/09/10 04:50:48;;;;;;;3.47;2.88;;;;;;;27.18;29.42;96575.84;5076341;28;20025;-28
2023/09/10 04:53:14;;;;;;;4.53;3.33;;;;;;;27.15;29.86;96572.09;5082645;28;20016;-28
2023/09/10 04:55:40;;;;;;;4.22;3.47;;;;;;;27.27;29.40;96575.41;5082119;28;20097;-28
2023/09/10 04:58:05;;;;;;;3.17;2.55;;;;;;;27.30;29.77;96585.47;5081080;28;20369;-29
2023/09/10 05:00:31;;;;;;;4.25;2.97;;;;;;;27.38;29.26;96577.97;5079993;28;20457;-28
2023/09/10 05:02:56;;;;;;;6.38;2.72;;;;;;;27.28;29.70;96578.94;5083725;28;20108;-28
2023/09/10 05:05:23;;;;;;;4.50;3.05;;;;;;;27.24;29.85;96584.06;5081805;28;20031;-28
2023/09/10 05:07:49;;;;;;;3.65;3.03;;;;;;;27.41;29.44;96588.06;5074785;28;20016;-30
2023/09/10 05:10:15;;;;;;;4.82;2.90;;;;;;;27.08;29.78;96583.09;5083366;28;20028;-28
2023/09/10 05:12:40;;;;;;;5.93;3.60;;;;;;;27.26;29.53;96585.03;5092204;28;20427;-28
2023/09/10 05:15:06;;;;;;;6.00;3.60;;;;;;;27.17;29.39;96586.22;5084519;28;20020;-28
2023/09/10 05:17:32;;;;;;;4.22;3.55;;;;;;;27.28;29.52;96596.41;5084512;28;20073;-29
2023/09/10 05:19:57;;;;;;;4.85;3.38;;;;;;;27.37;29.12;96587.63;5078491;28;20092;-28
2023/09/10 05:22:23;;;;;;;5.15;3.20;;;;;;;27.11;29.89;96591.13;5081540;28;20024;-29
2023/09/10 05:24:48;;;;;;;5.15;3.17;;;;;;;27.34;29.39;96594.25;5081207;28;20033;-28
2023/09/10 05:27:14;;;;;;;5.68;3.10;;;;;;;27.18;29.58;96592.53;5081389;28;20069;-28
2023/09/10 05:29:39;;;;;;;4.78;3.35;;;;;;;27.24;29.43;96601.53;5083624;28;20024;-28
2023/09/10 05:32:05;;;;;;;4.18;3.55;;;;;;;27.16;29.33;96595.09;5086097;28;20017;-28
2023/09/10 05:34:30;;;;;;;3.85;2.75;;;;;;;27.18;29.75;96589.75;5081232;28;20061;-29
2023/09/10 05:36:55;;;;;;;4.90;3.00;;;;;;;27.31;29.62;96598.13;5077806;28;20020;-29
2023/09/10 05:39:21;;;;;;;5.07;2.75;;;;;;;27.10;29.59;96594.44;5077988;28;20454;-27
2023/09/10 05:41:46;;;;;;;5.72;3.40;;;;;;;27.43;29.56;96602.19;5088300;28;20056;-28
2023/09/10 05:44:12;;;;;;;7.20;4.28;;;;;;;27.21;29.64;96605.38;5073742;28;20103;-28
2023/09/10 05:46:37;;;;;;;7.63;4.60;;;;;;;27.21;29.43;96597.03;5073579;28;20482;-28
2023/09/10 05:49:03;;;;;;;3.97;3.40;;;;;;;27.15;29.94;96593.59;5073653;28;20016;-29
2023/09/10 05:51:28;;;;;;;5.40;2.95;;;;;;;27.07;29.48;96596.28;5073747;28;20016;-29
2023/09/10 05:53:54;;;;;;;5.63;3.25;;;;;;;27.25;29.94;96591.16;5073707;28;20032;-28
2023/09/10 05:56:19;;;;;;;4.35;3.22;;;;;;;27.25;29.92;96593.94;5073523;28;20024;-28
2023/09/10 05:58:45;;;;;;;6.18;3.42;;;;;;;27.25;29.50;96597.47;5073486;28;20417;-29
2023/09/10 06:01:10;;;;;;;5.65;3.30;;;;;;;27.25;29.42;96593.94;5072910;28;20015;-29
2023/09/10 06:03:36;;;;;;;3.90;3.20;;;;;;;27.23;30.15;96594.47;5073523;28;20382;-29
2023/09/10 06:06:01;;;;;;;8.13;3.58;;;;;;;27.20;29.64;96589.22;5073211;28;20393;-28
2023/09/10 06:08:30;;;;;;;4.82;3.33;;;;;;;27.13;29.97;96594.13;5073791;28;20039;-28
2023/09/10 06:10:56;;;;;;;5.32;2.95;;;;;;;27.35;29.56;96595.75;5073724;28;20378;-28
2023/09/10 06:13:22;;;;;;;7.55;3.15;;;;;;;27.34;29.92;96597.03;5073671;28;20020;-28
2023/09/10 06:15:47;;;;;;;4.03;2.95;;;;;;;27.47;29.84;96597.03;5073140;28;20020;-28
2023/09/10 06:18:12;;;;;;;3.35;2.63;;;;;;;27.33;29.72;96606.66;5073341;28;20538;-27
2023/09/10 06:20:38;;;;;;;8.20;3.38;;;;;;;27.47;29.79;96602.63;5073179;28;20024;-28
2023/09/10 06:23:03;;;;;;;6.50;3.20;;;;;;;27.33;30.02;96606.66;5073245;28;20381;-29
2023/09/10 06:25:29;;;;;;;3.53;3.00;;;;;;;27.39;30.14;96607.34;5073125;28;20377;-28
2023/09/10 06:27:54;;;;;;;4.82;3.15;;;;;;;27.56;30.31;96603.50;5073322;28;20074;-28
2023/09/10 06:30:20;;;;;;;3.72;3.22;;;;;;;27.41;30.26;96604.78;5072874;28;20016;-28
2023/09/10 06:32:49;;;;;;;4.97;2.88;;;;;;;27.43;30.22;96602.19;5073040;28;20133;-28
2023/09/10 06:35:14;;;;;;;5.93;3.25;;;;;;;27.34;30.37;96602.59;5072984;28;20033;-28
2023/09/10 06:37:40;;;;;;;3.88;3.00;;;;;;;27.45;30.48;96607.97;5072950;28;20020;-29
2023/09/10 06:40:06;;;;;;;6.28;2.95;;;;;;;27.35;30.35;96606.91;5073139;28;20056;-27
2023/09/10 06:42:31;;;;;;;3.70;3.33;;;;;;;27.48;30.19;96608.94;5072804;28;20049;-28
2023/09/10 06:44:58;;;;;;;4.32;2.70;;;;;;;27.38;30.71;96605.06;5080278;28;20040;-28
2023/09/10 06:47:24;;;;;;;5.30;2.90;;;;;;;27.49;30.67;96613.97;5072792;28;20012;-28
2023/09/10 06:49:49;;;;;;;5.20;2.85;;;;;;;27.52;30.46;96610.13;5072086;28;20033;-28
2023/09/10 06:52:15;;;;;;;3.53;2.97;;;;;;;27.66;30.32;96607.38;5072590;28;20050;-28
2023/09/10 06:54:40;;;;;;;6.18;3.03;;;;;;;27.55;30.48;96619.44;5072943;28;20103;-28
2023/09/10 06:57:05;;;;;;;3.40;2.80;;;;;;;27.45;30.68;96621.88;5072431;28;20527;-28
2023/09/10 06:59:31;;;;;;;6.03;3.13;;;;;;;27.53;30.97;96622.78;5073018;28;20381;-28
2023/09/10 07:01:56;;;;;;;4.97;2.97;;;;;;;27.33;30.66;96620.59;5072857;28;20025;-29
2023/09/10 07:04:24;;;;;;;3.47;2.97;;;;;;;27.53;30.33;96628.34;5072629;28;20047;-28
2023/09/10 07:06:52;;;;;;;3.20;2.90;;;;;;;27.62;30.33;96637.56;5072887;28;20028;-28
2023/09/10 07:09:21;;;;;;;4.57;2.83;;;;;;;27.61;30.24;96633.28;5080123;28;20420;-28
2023/09/10 07:11:51;;;;;;;4.45;2.97;;;;;;;27.62;30.77;96634.78;5075015;28;20012;-28
2023/09/10 07:14:17;;;;;;;3.67;3.05;;;;;;;27.63;30.71;96630.72;5076537;28;20028;-28
2023/09/10 07:16:42;;;;;;;3.95;2.90;;;;;;;27.76;30.46;96639.06;5075929;28;20020;-28
2023/09/10 07:19:08;;;;;;;3.47;2.75;;;;;;;27.57;30.70;96633.59;5076532;28;20057;-28
2023/09/10 07:21:33;;;;;;;4.57;3.20;;;;;;;27.57;30.89;96635.66;5083873;28;20155;-28
2023/09/10 07:23:59;;;;;;;5.03;3.22;;;;;;;27.75;30.12;96643.16;5076727;28;20024;-27
2023/09/10 07:26:24;;;;;;;5.70;3.30;;;;;;;27.71;30.25;96634.34;5076345;28;20374;-27
2023/09/10 07:28:50;;;;;;;4.85;3.20;;;;;;;27.74;30.36;96642.41;5076231;28;20027;-28
2023/09/10 07:31:16;;;;;;;3.67;3.33;;;;;;;27.69;30.57;96629.34;5076312;28;20025;-28
2023/09/10 07:33:41;;;;;;;5.95;3.40;;;;;;;27.77;30.93;96635.00;5075979;28;20026;-27
2023/09/10 07:36:07;;;;;;;3.60;2.80;;;;;;;27.94;30.63;96643.78;5075995;28;20118;-30
2023/09/10 07:38:33;;;;;;;3.15;2.85;;;;;;;27.98;30.59;96641.41;5076092;28;20127;-28
2023/09/10 07:41:17;;;;;;;4.10;3.25;;;;;;;27.87;31.07;96645.19;5076296;28;20032;-28
2023/09/10 07:43:42;;;;;;;4.15;2.92;;;;;;;27.78;31.52;96642.09;5075879;28;20032;-27
2023/09/10 07:46:08;;;;;;;3.03;2.70;;;;;;;28.09;30.41;96643.97;5075995;28;20039;-28
2023/09/10 07:48:33;;;;;;;6.78;3.30;;;;;;;27.91;30.56;96653.22;5074994;28;20162;-27
2023/09/10 07:50:59;;;;;;;5.03;3.30;;;;;;;27.72;31.18;96644.97;5083079;28;20058;-27
2023/09/10 07:53:25;;;;;;;4.00;3.00;;;;;;;27.86;30.73;96645.72;5075555;28;20154;-28
2023/09/10 07:55:51;;;;;;;4.13;2.95;;;;;;;28.02;30.52;96647.41;5075645;28;20095;-28
2023/09/10 07:58:17;;;;;;;13.20;3.50;;;;;;;28.11;30.47;96660.16;5075724;28;20025;-28
2023/09/10 08:00:44;;;;;;;7.88;3.33;;;;;;;28.10;30.68;96656.63;5075560;28;20386;-29
2023/09/10 08:03:09;;;;;;;4.93;3.20;;;;;;;28.14;31.39;96656.28;5075420;28;20036;-28
2023/09/10 08:05:35;;;;;;;3.67;3.20;;;;;;;28.19;30.75;96658.97;5075743;28;20028;-28
2023/09/10 08:08:04;;;;;;;3.60;3.20;;;;;;;28.33;30.95;96661.75;5076203;28;20115;-29
2023/09/10 08:10:30;;;;;;;4.22;3.13;;;;;;;28.20;30.71;96666.06;5075476;28;20020;-28
2023/09/10 08:12:56;;;;;;;4.63;3.58;;;;;;;28.29;30.86;96664.13;5075740;28;20028;-28
2023/09/10 08:15:21;;;;;;;7.90;3.85;;;;;;;28.37;30.96;96662.16;5074175;28;20093;-28
2023/09/10 08:17:52;;;;;;;3.85;3.10;;;;;;;28.38;31.60;96667.22;5075250;28;20070;-28
2023/09/10 08:20:17;;;;;;;4.63;3.38;;;;;;;28.33;31.38;96670.13;5075344;28;20028;-27
2023/09/10 08:22:43;;;;;;;8.63;3.50;;;;;;;28.41;31.12;96670.97;5075027;28;20024;-27
2023/09/10 08:25:09;;;;;;;4.13;3.63;;;;;;;28.37;31.19;96671.28;5074244;28;20043;-28
2023/09/10 08:27:37;;;;;;;4.65;3.50;;;;;;;28.47;31.20;96677.91;5075374;28;20024;-27
2023/09/10 08:30:05;;;;;;;3.33;2.90;;;;;;;28.38;31.51;96672.03;5075005;28;20032;-28
2023/09/10 08:32:31;;;;;;;3.45;3.08;;;;;;;28.49;31.11;96675.34;5074973;28;20091;-28
2023/09/10 08:34:57;;;;;;;4.40;3.10;;;;;;;28.50;31.13;96681.66;5075100;28;20025;-28
2023/09/10 08:37:22;;;;;;;5.30;3.40;;;;;;;28.60;31.27;96679.91;5075177;28;20036;-28
2023/09/10 08:39:48;;;;;;;3.63;3.17;;;;;;;28.51;31.38;96683.91;5075090;28;20020;-28
2023/09/10 08:42:30;;;;;;;4.80;3.40;;;;;;;28.37;31.51;96682.44;5074824;28;20477;-28
2023/09/10 08:45:01;;;;;;;5.93;3.67;;;;;;;28.58;31.23;96686.03;5074973;28;20032;-28
2023/09/10 08:47:32;;;;;;;5.18;3.10;;;;;;;28.56;31.65;96685.81;5075047;28;20016;-28
2023/09/10 08:50:06;;;;;;;4.82;3.40;;;;;;;28.40;31.54;96684.16;5082079;28;20972;-28
2023/09/10 08:52:33;;;;;;;3.58;3.15;;;;;;;28.70;31.33;96683.00;5074592;28;20028;-28
2023/09/10 08:54:59;;;;;;;4.28;3.38;;;;;;;28.60;31.42;96686.25;5074796;28;20028;-28
2023/09/10 08:57:25;;;;;;;5.32;3.40;;;;;;;28.55;31.80;96695.50;5074757;28;20020;-28
2023/09/10 08:59:51;;;;;;;5.78;3.25;;;;;;;28.68;31.82;96691.19;5074332;28;20024;-27
2023/09/10 09:02:16;;;;;;;6.75;3.50;;;;;;;28.77;31.73;96688.66;5074306;28;20029;-27
2023/09/10 09:04:44;;;;;;;6.65;3.40;;;;;;;28.72;31.73;96691.56;5074507;28;20074;-28
2023/09/10 09:07:12;;;;;;;5.80;3.60;;;;;;;28.75;31.84;96691.25;5074093;28;20036;-28
2023/09/10 09:09:41;;;;;;;4.10;3.25;;;;;;;28.55;31.94;96689.19;5074466;28;20059;-28
2023/09/10 09:12:11;;;;;;;5.45;3.40;;;;;;;28.65;31.70;96698.59;5074304;28;20097;-27
2023/09/10 09:14:42;;;;;;;8.35;3.20;;;;;;;28.71;31.88;96679.66;5073373;28;20021;-29
2023/09/10 09:17:10;;;;;;;4.13;3.17;;;;;;;28.75;31.75;96685.66;5074159;28;20381;-28
2023/09/10 09:19:37;;;;;;;5.00;3.53;;;;;;;28.68;31.77;96686.34;5074151;28;20047;-28
2023/09/10 09:22:07;;;;;;;3.53;2.97;;;;;;;28.70;31.54;96686.53;5073093;28;20095;-28
2023/09/10 09:24:33;;;;;;;4.38;3.20;;;;;;;28.79;31.64;96683.31;5074818;28;20035;-28
2023/09/10 09:27:00;;;;;;;5.75;3.60;;;;;;;28.87;31.77;96686.19;5074003;28;20025;-27
2023/09/10 09:29:27;;;;;;;3.75;3.45;;;;;;;28.72;31.88;96686.00;5073990;28;20025;-28
2023/09/10 09:31:53;;;;;;;3.85;3.42;;;;;;;28.81;31.90;96689.09;5074440;28;20035;-28
2023/09/10 09:34:18;;;;;;;6.72;3.10;;;;;;;28.81;31.69;96677.19;5073138;28;20021;-27
2023/09/10 09:36:50;;;;;;;4.80;3.10;;;;;;;28.71;31.90;96685.25;5073537;28;20027;-27
2023/09/10 09:39:17;;;;;;;5.47;3.53;;;;;;;28.97;31.77;96684.41;5073935;28;20028;-28
2023/09/10 09:41:47;;;;;;;4.38;3.15;;;;;;;28.84;31.88;96682.44;5073658;28;20052;-28
2023/09/10 09:44:12;;;;;;;4.65;3.15;;;;;;;28.75;31.64;96680.09;5072703;28;20070;-27
2023/09/10 09:46:38;;;;;;;4.93;3.17;;;;;;;28.90;31.66;96674.69;5073511;28;20091;-29
2023/09/10 09:49:05;;;;;;;4.32;3.28;;;;;;;28.93;31.47;96670.78;5076194;28;20074;-28
2023/09/10 09:51:30;;;;;;;4.22;3.03;;;;;;;28.81;31.71;96668.81;5077948;28;20107;-29
2023/09/10 09:53:56;;;;;;;5.32;3.35;;;;;;;28.99;31.60;96678.28;5073317;28;20103;-27
2023/09/10 09:56:21;;;;;;;3.58;3.20;;;;;;;28.94;31.59;96675.06;5073467;28;20051;-29
2023/09/10 09:58:47;;;;;;;3.88;3.22;;;;;;;28.83;31.59;96680.19;5073074;28;20439;-28
2023/09/10 10:01:12;;;;;;;6.72;3.75;;;;;;;28.94;31.29;96677.13;5073207;28;20100;-27
2023/09/10 10:03:39;;;;;;;4.22;3.53;;;;;;;28.98;31.58;96674.00;5072442;28;20476;-28
2023/09/10 10:06:06;;;;;;;4.63;3.15;;;;;;;29.00;31.63;96679.78;5073335;28;20024;-28
2023/09/10 10:08:32;;;;;;;4.72;3.15;;;;;;;28.95;31.46;96671.00;5073470;28;20024;-29
2023/09/10 10:10:58;;;;;;;4.10;3.33;;;;;;;28.98;31.39;96671.22;5073388;28;20020;-27
2023/09/10 10:13:26;;;;;;;4.25;3.03;;;;;;;29.00;31.18;96671.41;5073477;28;20024;-28
2023/09/10 10:15:56;;;;;;;4.93;3.15;;;;;;;28.98;31.41;96665.63;5073157;28;20509;-27
2023/09/10 10:18:22;;;;;;;6.07;3.50;;;;;;;29.09;31.28;96663.31;5073150;28;20051;-28
2023/09/10 10:20:49;;;;;;;4.80;4.13;;;;;;;29.10;31.30;96658.47;5073356;28;20020;-28
2023/09/10 10:23:19;;;;;;;4.30;3.47;;;;;;;29.05;31.50;96654.53;5073023;28;20029;-28
2023/09/10 10:25:46;;;;;;;5.13;3.70;;;;;;;29.14;31.62;96656.09;5073234;28;20101;-29
2023/09/10 10:28:12;;;;;;;6.82;3.50;;;;;;;29.11;31.44;96655.13;5073723;28;20479;-28
2023/09/10 10:30:50;;;;;;;5.55;3.45;;;;;;;29.12;31.61;96655.88;5073196;28;20075;-28
2023/09/10 10:33:23;;;;;;;5.75;3.53;;;;;;;29.10;31.58;96653.63;5072958;28;20027;-28
2023/09/10 10:36:24;;;;;;;5.82;3.75;;;;;;;29.13;31.68;96651.78;5080500;28;20021;-27
2023/09/10 10:38:52;;;;;;;20.15;4.50;;;;;;;29.12;31.86;96650.31;5073050;28;20047;-28
2023/09/10 10:41:23;;;;;;;10.55;4.45;;;;;;;29.20;31.88;96651.84;5072678;28;20040;-28
2023/09/10 10:43:55;;;;;;;6.35;3.58;;;;;;;29.15;31.50;96649.97;5072874;28;20013;-28
2023/09/10 10:46:25;;;;;;;;;;;;;;;29.21;31.46;96655.41;5074934;28;20411;-28
2023/09/10 10:48:51;;;;;;;4.03;3.30;;;;;;;29.26;31.33;96655.25;5077878;28;19908;-27
2023/09/10 10:51:17;;;;;;;4.57;3.30;;;;;;;29.20;31.20;96645.50;5083318;28;20017;-28
2023/09/10 10:53:43;;;;;;;4.75;3.53;;;;;;;29.28;31.07;96646.34;5077062;28;20557;-28
2023/09/10 10:56:10;;;;;;;4.72;3.10;;;;;;;29.23;31.28;96644.44;5084735;28;20028;-28
2023/09/10 10:58:40;;;;;;;5.43;3.65;;;;;;;29.27;31.17;96647.63;5076903;28;20385;-27
2023/09/10 11:01:05;;;;;;;14.43;4.15;;;;;;;29.26;31.42;96648.94;5076990;28;20013;-29
2023/09/10 11:03:34;;;;;;;4.43;3.35;;;;;;;29.36;30.89;96647.13;5077094;28;20022;-28
2023/09/10 11:06:07;;;;;;;4.85;3.28;;;;;;;29.38;31.31;96647.38;5076374;28;20122;-28
2023/09/10 11:08:37;;;;;;;4.50;3.38;;;;;;;29.30;31.72;96641.69;5076600;28;20017;-28
2023/09/10 11:11:04;;;;;;;5.05;3.50;;;;;;;29.34;31.70;96646.94;5076839;28;20541;-29
2023/09/10 11:13:34;;;;;;;4.57;3.60;;;;;;;29.37;31.58;96645.84;5076674;28;20028;-28
2023/09/10 11:16:05;;;;;;;6.13;3.80;;;;;;;29.32;31.78;96638.34;5076560;28;20085;-29
2023/09/10 11:18:36;;;;;;;4.78;3.47;;;;;;;29.41;31.50;96639.94;5084441;28;20031;-29
2023/09/10 11:21:08;;;;;;;6.00;3.38;;;;;;;29.38;31.02;96641.03;5076541;28;20020;-29
2023/09/10 11:23:35;;;;;;;3.45;3.15;;;;;;;29.44;30.29;96630.44;5076780;28;20020;-29
2023/09/10 11:26:16;;;;;;;4.72;3.50;;;;;;;29.41;29.74;96635.09;5076575;28;20078;-28
2023/09/10 11:28:51;;;;;;;3.20;2.83;;;;;;;29.43;28.87;96642.91;5083416;28;20059;-29
2023/09/10 11:31:46;;;;;;;4.07;2.63;;;;;;;29.47;28.74;96634.94;5076712;28;20025;-28
2023/09/10 11:34:15;;;;;;;5.75;2.92;;;;;;;29.44;27.90;96636.03;5076423;28;20039;-28